createdAt,value
2023-01-15T00:00:01.641Z,11.06
2023-01-15T00:02:31.983Z,11.50
2023-01-15T00:05:02.858Z,11.67
2023-01-15T00:07:30.718Z,11.24
2023-01-15T00:09:58.210Z,11.87
2023-01-15T00:12:26.832Z,11.19
2023-01-15T00:14:54.257Z,11.51
2023-01-15T00:17:21.782Z,10.89
2023-01-15T00:19:50.614Z,11.30
2023-01-15T00:22:18.053Z,10.81
2023-01-15T00:25:03.277Z,10.79
2023-01-15T00:27:40.014Z,10.98
2023-01-15T00:30:11.924Z,11.39
2023-01-15T00:32:39.504Z,11.60
2023-01-15T00:35:13.205Z,11.84
2023-01-15T00:37:40.673Z,11.09
2023-01-15T00:40:09.240Z,11.44
2023-01-15T00:42:36.747Z,11.66
2023-01-15T00:45:10.282Z,11.82
2023-01-15T00:47:38.825Z,11.65
2023-01-15T00:50:10.300Z,11.32
2023-01-15T00:52:37.843Z,11.29
2023-01-15T00:55:06.537Z,11.05
2023-01-15T00:57:34.149Z,11.62
2023-01-15T01:00:01.638Z,11.03
2023-01-15T01:02:31.435Z,11.18
2023-01-15T01:04:58.881Z,11.50
2023-01-15T01:07:27.646Z,11.52
2023-01-15T01:09:55.076Z,11.40
2023-01-15T01:12:23.635Z,10.78
2023-01-15T01:14:51.061Z,11.39
2023-01-15T01:17:18.495Z,11.38
2023-01-15T01:19:45.949Z,11.41
2023-01-15T01:22:13.440Z,11.54
2023-01-15T01:24:42.183Z,11.33
2023-01-15T01:27:09.641Z,12.10
2023-01-15T01:29:37.056Z,12.05
2023-01-15T01:32:04.834Z,11.50
2023-01-15T01:34:33.571Z,11.98
2023-01-15T01:37:01.018Z,12.29
2023-01-15T01:39:28.632Z,12.09
2023-01-15T01:41:57.395Z,11.64
2023-01-15T01:45:00.493Z,12.17
2023-01-15T01:47:30.343Z,12.10
2023-01-15T01:50:02.051Z,12.05
2023-01-15T01:52:33.856Z,11.98
2023-01-15T01:55:03.741Z,12.28
2023-01-15T01:57:33.588Z,12.34
2023-01-15T02:00:04.911Z,12.32
2023-01-15T02:02:32.876Z,12.16
2023-01-15T02:05:00.615Z,11.91
2023-01-15T02:07:28.189Z,11.52
2023-01-15T02:09:55.616Z,11.80
2023-01-15T02:12:29.384Z,12.19
2023-01-15T02:15:07.706Z,12.20
2023-01-15T02:17:41.741Z,12.14
2023-01-15T02:20:20.309Z,12.24
2023-01-15T02:22:58.965Z,12.05
2023-01-15T02:25:35.068Z,11.93
2023-01-15T02:28:11.284Z,12.14
2023-01-15T02:30:44.328Z,11.98
2023-01-15T02:33:16.865Z,12.18
2023-01-15T02:35:48.683Z,12.33
2023-01-15T02:38:19.833Z,12.10
2023-01-15T02:40:49.304Z,11.84
2023-01-15T02:43:19.258Z,11.64
2023-01-15T02:45:53.542Z,12.02
2023-01-15T02:48:25.971Z,11.88
2023-01-15T02:50:58.344Z,11.33
2023-01-15T02:53:29.902Z,11.95
2023-01-15T02:56:04.231Z,11.93
2023-01-15T02:58:36.517Z,11.97
2023-01-15T03:01:10.510Z,12.04
2023-01-15T03:03:44.106Z,11.79
2023-01-15T03:06:16.286Z,12.02
2023-01-15T03:08:44.053Z,12.27
2023-01-15T03:11:13.288Z,11.43
2023-01-15T03:13:48.039Z,11.74
2023-01-15T03:16:36.022Z,11.91
2023-01-15T03:19:08.972Z,12.11
2023-01-15T03:21:45.099Z,12.30
2023-01-15T03:24:15.943Z,12.26
2023-01-15T03:26:43.462Z,11.87
2023-01-15T03:29:14.203Z,11.82
2023-01-15T03:31:44.749Z,11.80
2023-01-15T03:34:13.093Z,12.10
2023-01-15T03:36:40.527Z,12.21
2023-01-15T03:39:08.084Z,12.31
2023-01-15T03:41:48.865Z,11.69
2023-01-15T03:44:27.839Z,11.82
2023-01-15T03:47:04.920Z,11.47
2023-01-15T03:49:43.563Z,11.91
2023-01-15T03:52:17.506Z,11.90
2023-01-15T03:54:51.467Z,12.01
2023-01-15T03:57:27.732Z,12.07
2023-01-15T04:00:00.569Z,11.76
2023-01-15T04:02:31.095Z,11.21
2023-01-15T04:04:59.999Z,9.98
2023-01-15T04:07:28.834Z,9.63
2023-01-15T04:09:56.318Z,9.77
2023-01-15T04:12:23.761Z,9.54
2023-01-15T04:14:51.151Z,9.31
2023-01-15T04:17:19.860Z,9.10
2023-01-15T04:19:47.267Z,8.95
2023-01-15T04:22:14.682Z,9.15
2023-01-15T04:24:42.092Z,8.90
2023-01-15T04:27:09.519Z,8.70
2023-01-15T04:29:36.906Z,8.73
2023-01-15T04:32:04.710Z,8.03
2023-01-15T04:34:35.147Z,7.49
2023-01-15T04:37:02.970Z,7.40
2023-01-15T04:39:30.374Z,7.46
2023-01-15T04:42:15.199Z,7.74
2023-01-15T04:44:42.700Z,7.43
2023-01-15T04:47:10.309Z,7.32
2023-01-15T04:49:39.092Z,7.23
2023-01-15T04:52:06.996Z,7.31
2023-01-15T04:54:34.450Z,7.49
2023-01-15T04:57:01.895Z,7.76
2023-01-15T04:59:29.327Z,7.90
2023-01-15T05:02:04.613Z,8.28
2023-01-15T05:04:33.716Z,8.57
2023-01-15T05:07:03.428Z,8.33
2023-01-15T05:09:30.983Z,8.68
2023-01-15T05:11:58.448Z,9.05
2023-01-15T05:14:25.914Z,8.68
2023-01-15T05:16:53.367Z,9.05
2023-01-15T05:19:20.914Z,9.01
2023-01-15T05:21:48.336Z,8.35
2023-01-15T05:24:18.337Z,8.67
2023-01-15T05:26:46.368Z,8.67
2023-01-15T05:29:14.831Z,8.60
2023-01-15T05:31:45.034Z,9.14
2023-01-15T05:34:13.554Z,8.52
2023-01-15T05:36:41.527Z,9.31
2023-01-15T05:39:09.067Z,9.69
2023-01-15T05:41:50.651Z,9.53
2023-01-15T05:44:20.792Z,9.82
2023-01-15T05:46:49.321Z,9.95
2023-01-15T05:49:18.494Z,9.35
2023-01-15T05:51:46.844Z,9.67
2023-01-15T05:54:15.819Z,9.13
2023-01-15T05:56:46.255Z,9.64
2023-01-15T05:59:14.471Z,9.72
2023-01-15T06:01:42.245Z,9.33
2023-01-15T06:04:11.111Z,9.69
2023-01-15T06:06:38.565Z,9.41
2023-01-15T06:09:05.999Z,9.63
2023-01-15T06:11:34.064Z,9.73
2023-01-15T06:14:02.808Z,9.81
2023-01-15T06:16:30.274Z,8.57
2023-01-15T06:19:01.563Z,8.87
2023-01-15T06:21:28.983Z,9.30
2023-01-15T06:23:56.424Z,9.61
2023-01-15T06:26:24.155Z,9.25
2023-01-15T06:28:51.922Z,9.40
2023-01-15T06:31:22.293Z,9.17
2023-01-15T06:33:49.846Z,9.42
2023-01-15T06:36:21.539Z,9.89
2023-01-15T06:38:50.285Z,10.06
2023-01-15T06:41:37.810Z,10.13
2023-01-15T06:44:23.615Z,10.02
2023-01-15T06:47:10.247Z,10.17
2023-01-15T06:49:39.659Z,10.08
2023-01-15T06:52:07.710Z,9.85
2023-01-15T06:54:35.854Z,10.01
2023-01-15T06:57:03.577Z,10.03
2023-01-15T06:59:31.105Z,10.25
2023-01-15T07:02:00.184Z,10.09
2023-01-15T07:04:27.570Z,9.97
2023-01-15T07:06:55.041Z,10.07
2023-01-15T07:09:22.439Z,9.93
2023-01-15T07:11:52.436Z,10.26
2023-01-15T07:14:20.957Z,10.15
2023-01-15T07:16:48.815Z,10.15
2023-01-15T07:19:18.719Z,10.27
2023-01-15T07:21:46.242Z,10.13
2023-01-15T07:24:14.183Z,10.24
2023-01-15T07:26:42.058Z,10.01
2023-01-15T07:29:09.534Z,10.20
2023-01-15T07:31:37.210Z,10.02
2023-01-15T07:34:04.858Z,9.84
2023-01-15T07:36:33.691Z,9.94
2023-01-15T07:39:01.090Z,9.89
2023-01-15T07:41:47.653Z,10.07
2023-01-15T07:44:32.547Z,9.85
2023-01-15T07:47:17.820Z,10.02
2023-01-15T07:49:48.703Z,9.89
2023-01-15T07:52:19.145Z,10.13
2023-01-15T07:54:47.683Z,9.71
2023-01-15T07:57:17.439Z,9.91
2023-01-15T07:59:44.851Z,9.82
2023-01-15T08:02:13.003Z,9.69
2023-01-15T08:04:40.756Z,9.69
2023-01-15T08:07:09.008Z,9.63
2023-01-15T08:09:37.964Z,10.00
2023-01-15T08:12:23.791Z,10.08
2023-01-15T08:15:09.162Z,9.84
2023-01-15T08:17:37.839Z,9.44
2023-01-15T08:20:11.215Z,9.78
2023-01-15T08:22:40.097Z,9.99
2023-01-15T08:25:10.942Z,9.47
2023-01-15T08:27:40.495Z,9.92
2023-01-15T08:30:12.636Z,10.11
2023-01-15T08:32:40.398Z,10.15
2023-01-15T08:35:09.047Z,9.70
2023-01-15T08:37:36.605Z,10.17
2023-01-15T08:40:04.561Z,10.11
2023-01-15T08:42:33.425Z,9.61
2023-01-15T08:45:00.939Z,10.04
2023-01-15T08:47:28.418Z,9.73
2023-01-15T08:49:55.933Z,9.91
2023-01-15T08:52:23.345Z,9.81
2023-01-15T08:54:50.786Z,10.23
2023-01-15T08:57:18.186Z,9.86
2023-01-15T08:59:48.039Z,10.11
2023-01-15T09:02:17.655Z,10.48
2023-01-15T09:04:45.283Z,10.05
2023-01-15T09:07:13.346Z,10.05
2023-01-15T09:09:40.813Z,9.98
2023-01-15T09:12:08.960Z,9.62
2023-01-15T09:14:57.414Z,10.02
2023-01-15T09:17:25.231Z,10.21
2023-01-15T09:19:52.704Z,9.85
2023-01-15T09:22:20.209Z,10.15
2023-01-15T09:24:47.721Z,10.45
2023-01-15T09:27:15.409Z,10.31
2023-01-15T09:29:42.821Z,10.46
2023-01-15T09:32:10.615Z,9.80
2023-01-15T09:34:39.363Z,10.37
2023-01-15T09:37:06.768Z,10.01
2023-01-15T09:39:34.254Z,10.60
2023-01-15T09:42:16.078Z,10.24
2023-01-15T09:45:01.434Z,10.37
2023-01-15T09:47:35.567Z,10.41
2023-01-15T09:50:19.165Z,10.45
2023-01-15T09:53:11.808Z,10.39
2023-01-15T09:55:46.444Z,10.10
2023-01-15T09:58:15.943Z,9.62
2023-01-15T10:00:46.869Z,10.03
2023-01-15T10:03:26.149Z,10.30
2023-01-15T10:06:03.014Z,10.32
2023-01-15T10:08:34.475Z,10.40
2023-01-15T10:11:05.352Z,10.87
2023-01-15T10:13:39.994Z,10.78
2023-01-15T10:16:08.181Z,10.71
2023-01-15T10:18:36.961Z,9.99
2023-01-15T10:21:34.592Z,10.17
2023-01-15T10:24:06.851Z,9.76
2023-01-15T10:26:39.666Z,10.31
2023-01-15T10:29:14.447Z,10.56
2023-01-15T10:31:52.014Z,10.69
2023-01-15T10:34:46.831Z,10.70
2023-01-15T10:37:21.227Z,10.63
2023-01-15T10:40:04.776Z,10.88
2023-01-15T10:42:44.815Z,10.63
2023-01-15T10:45:17.069Z,10.87
2023-01-15T10:47:49.142Z,10.47
2023-01-15T10:50:19.878Z,10.10
2023-01-15T10:52:53.333Z,10.78
2023-01-15T10:55:26.973Z,11.11
2023-01-15T10:58:09.911Z,10.69
2023-01-15T11:00:38.656Z,10.75
2023-01-15T11:03:15.011Z,10.86
2023-01-15T11:05:42.532Z,10.07
2023-01-15T11:09:06.106Z,10.50
2023-01-15T11:11:20.187Z,11.15
2023-01-15T11:14:12.748Z,10.60
2023-01-15T11:16:55.629Z,10.37
2023-01-15T11:19:40.832Z,10.32
2023-01-15T11:22:11.426Z,9.81
2023-01-15T11:24:47.928Z,10.24
2023-01-15T11:27:19.091Z,10.37
2023-01-15T11:29:51.742Z,10.40
2023-01-15T11:32:27.852Z,10.79
2023-01-15T11:34:56.449Z,10.79
2023-01-15T11:37:25.467Z,10.54
2023-01-15T11:39:56.046Z,10.56
2023-01-15T11:42:41.715Z,10.47
2023-01-15T11:45:35.780Z,10.53
2023-01-15T11:48:21.181Z,10.58
2023-01-15T11:50:53.502Z,11.00
2023-01-15T11:53:24.812Z,10.77
2023-01-15T11:56:00.695Z,10.86
2023-01-15T11:58:30.215Z,10.88
2023-01-15T12:00:58.572Z,11.06
2023-01-15T12:03:30.189Z,10.85
2023-01-15T12:06:02.624Z,9.98
2023-01-15T12:08:43.342Z,10.38
2023-01-15T12:11:27.073Z,10.53
2023-01-15T12:14:05.650Z,11.15
2023-01-15T12:16:41.475Z,10.38
2023-01-15T12:19:19.340Z,10.23
2023-01-15T12:22:05.433Z,9.98
2023-01-15T12:24:46.377Z,10.25
2023-01-15T12:27:31.434Z,9.84
2023-01-15T12:30:03.442Z,10.53
2023-01-15T12:32:36.851Z,10.54
2023-01-15T12:35:08.317Z,10.82
2023-01-15T12:37:41.440Z,10.68
2023-01-15T12:40:22.269Z,9.68
2023-01-15T12:43:11.845Z,10.50
2023-01-15T12:45:42.602Z,10.79
2023-01-15T12:48:17.378Z,10.94
2023-01-15T12:50:47.976Z,10.99
2023-01-15T12:53:20.281Z,10.21
2023-01-15T12:55:55.114Z,10.26
2023-01-15T12:58:41.286Z,10.74
2023-01-15T13:01:16.523Z,10.34
2023-01-15T13:03:52.469Z,10.78
2023-01-15T13:06:21.285Z,10.50
2023-01-15T13:08:59.067Z,9.69
2023-01-15T13:11:26.537Z,9.47
2023-01-15T13:14:01.210Z,9.64
2023-01-15T13:16:38.736Z,9.64
2023-01-15T13:19:24.040Z,9.77
2023-01-15T13:21:55.021Z,9.75
2023-01-15T13:24:47.121Z,9.67
2023-01-15T13:27:30.220Z,10.71
2023-01-15T13:30:14.578Z,9.59
2023-01-15T13:32:46.342Z,9.85
2023-01-15T13:35:20.059Z,9.54
2023-01-15T13:37:50.766Z,9.96
2023-01-15T13:40:27.802Z,9.97
2023-01-15T13:42:56.999Z,9.55
2023-01-15T13:45:37.414Z,9.71
2023-01-15T13:48:09.088Z,9.38
2023-01-15T13:50:42.059Z,8.69
2023-01-15T13:53:18.487Z,9.24
2023-01-15T13:55:53.608Z,8.86
2023-01-15T13:58:24.783Z,9.31
2023-01-15T14:01:23.094Z,9.92
2023-01-15T14:04:01.622Z,10.28
2023-01-15T14:06:40.879Z,9.78
2023-01-15T14:09:11.894Z,9.60
2023-01-15T14:11:47.436Z,9.64
2023-01-15T14:14:32.976Z,10.02
2023-01-15T14:17:15.339Z,9.20
2023-01-15T14:20:01.151Z,9.00
2023-01-15T14:22:46.232Z,9.57
2023-01-15T14:25:31.239Z,9.54
2023-01-15T14:28:12.211Z,9.73
2023-01-15T14:31:05.106Z,9.52
2023-01-15T14:33:45.003Z,9.18
2023-01-15T14:36:18.064Z,9.24
2023-01-15T14:38:50.246Z,9.34
2023-01-15T14:41:26.537Z,9.24
2023-01-15T14:43:53.879Z,9.66
2023-01-15T14:46:27.109Z,9.21
2023-01-15T14:48:56.194Z,9.39
2023-01-15T14:51:27.816Z,9.84
2023-01-15T14:53:58.755Z,9.44
2023-01-15T14:56:30.299Z,8.97
2023-01-15T14:59:02.579Z,8.91
2023-01-15T15:01:40.734Z,9.19
2023-01-15T15:04:20.976Z,9.52
2023-01-15T15:06:52.013Z,9.80
2023-01-15T15:09:30.211Z,9.27
2023-01-15T15:12:19.991Z,9.23
2023-01-15T15:14:52.232Z,9.15
2023-01-15T15:17:33.339Z,9.62
2023-01-15T15:20:18.274Z,9.04
2023-01-15T15:22:48.969Z,9.22
2023-01-15T15:25:22.957Z,9.14
2023-01-15T15:27:50.361Z,8.99
2023-01-15T15:30:20.887Z,8.73
2023-01-15T15:32:48.632Z,9.24
2023-01-15T15:35:26.932Z,9.25
2023-01-15T15:37:55.081Z,8.36
2023-01-15T15:40:30.493Z,9.34
2023-01-15T15:43:24.057Z,9.04
2023-01-15T15:46:11.463Z,9.42
2023-01-15T15:48:46.085Z,9.43
2023-01-15T15:51:40.912Z,9.13
2023-01-15T15:54:17.606Z,9.25
2023-01-15T15:56:57.158Z,9.41
2023-01-15T15:59:35.540Z,9.16
2023-01-15T16:02:16.017Z,9.24
2023-01-15T16:04:48.280Z,9.35
2023-01-15T16:07:25.101Z,9.13
2023-01-15T16:09:55.616Z,9.26
2023-01-15T16:12:24.269Z,8.93
2023-01-15T16:14:52.549Z,9.11
2023-01-15T16:17:20.229Z,9.11
2023-01-15T16:19:48.358Z,8.59
2023-01-15T16:22:19.776Z,9.32
2023-01-15T16:24:55.192Z,9.15
2023-01-15T16:27:24.150Z,8.99
2023-01-15T16:29:54.571Z,8.71
2023-01-15T16:32:27.633Z,8.83
2023-01-15T16:35:01.964Z,8.23
2023-01-15T16:37:32.413Z,7.82
2023-01-15T16:40:02.279Z,8.27
2023-01-15T16:42:36.171Z,8.18
2023-01-15T16:45:06.951Z,8.26
2023-01-15T16:47:36.871Z,8.63
2023-01-15T16:50:28.967Z,8.37
2023-01-15T16:53:00.374Z,8.42
2023-01-15T16:55:43.110Z,7.99
2023-01-15T16:58:19.678Z,8.50
2023-01-15T17:00:50.116Z,8.65
2023-01-15T17:03:20.191Z,7.93
2023-01-15T17:05:48.966Z,7.97
2023-01-15T17:08:20.135Z,7.89
2023-01-15T17:10:56.390Z,7.86
2023-01-15T17:13:32.233Z,8.07
2023-01-15T17:16:06.820Z,7.98
2023-01-15T17:18:34.650Z,8.61
2023-01-15T17:21:02.323Z,8.37
2023-01-15T17:23:36.208Z,7.71
2023-01-15T17:26:05.150Z,7.78
2023-01-15T17:28:32.570Z,8.10
2023-01-15T17:31:02.283Z,7.80
2023-01-15T17:33:29.873Z,8.23
2023-01-15T17:36:00.642Z,8.13
2023-01-15T17:38:28.220Z,8.28
2023-01-15T17:40:59.824Z,7.85
2023-01-15T17:43:27.479Z,8.62
2023-01-15T17:45:54.922Z,8.61
2023-01-15T17:48:22.354Z,7.21
2023-01-15T17:50:49.970Z,7.60
2023-01-15T17:53:17.901Z,7.74
2023-01-15T17:56:02.972Z,7.97
2023-01-15T17:58:49.464Z,7.97
2023-01-15T18:01:37.829Z,7.94
2023-01-15T18:04:24.444Z,7.48
2023-01-15T18:06:54.639Z,7.80
2023-01-15T18:09:23.934Z,7.85
2023-01-15T18:11:51.355Z,7.83
2023-01-15T18:14:20.073Z,8.28
2023-01-15T18:16:47.470Z,8.18
2023-01-15T18:19:14.907Z,8.33
2023-01-15T18:21:42.670Z,7.63
2023-01-15T18:24:11.850Z,7.63
2023-01-15T18:26:40.335Z,8.28
2023-01-15T18:29:09.294Z,8.37
2023-01-15T18:31:39.347Z,7.52
2023-01-15T18:34:06.865Z,7.61
2023-01-15T18:36:34.344Z,7.60
2023-01-15T18:39:06.115Z,8.00
2023-01-15T18:41:52.291Z,8.07
2023-01-15T18:44:39.046Z,7.89
2023-01-15T18:47:12.064Z,7.53
2023-01-15T18:49:40.776Z,7.48
2023-01-15T18:52:26.491Z,7.24
2023-01-15T18:54:54.572Z,7.44
2023-01-15T18:57:22.454Z,7.86
2023-01-15T18:59:50.241Z,8.29
2023-01-15T19:02:20.754Z,8.46
2023-01-15T19:04:49.016Z,7.80
2023-01-15T19:07:16.741Z,7.72
2023-01-15T19:09:44.217Z,7.85
2023-01-15T19:12:11.962Z,8.41
2023-01-15T19:14:56.745Z,8.13
2023-01-15T19:17:43.804Z,7.48
2023-01-15T19:20:16.302Z,7.82
2023-01-15T19:23:05.720Z,7.34
2023-01-15T19:25:38.025Z,7.56
2023-01-15T19:28:06.721Z,7.62
2023-01-15T19:30:35.500Z,7.29
2023-01-15T19:33:04.925Z,7.79
2023-01-15T19:35:32.490Z,7.97
2023-01-15T19:37:59.971Z,7.65
2023-01-15T19:40:28.524Z,8.17
2023-01-15T19:43:13.727Z,8.29
2023-01-15T19:46:00.444Z,8.08
2023-01-15T19:48:47.117Z,7.84
2023-01-15T19:51:14.872Z,7.93
2023-01-15T19:53:42.257Z,8.24
2023-01-15T19:56:09.879Z,7.85
2023-01-15T19:58:37.847Z,8.50
2023-01-15T20:01:05.785Z,8.65
2023-01-15T20:03:34.604Z,8.73
2023-01-15T20:06:02.032Z,8.27
2023-01-15T20:08:31.972Z,8.04
2023-01-15T20:10:59.459Z,7.88
2023-01-15T20:13:44.260Z,8.39
2023-01-15T20:16:13.675Z,8.23
2023-01-15T20:18:42.485Z,8.02
2023-01-15T20:21:12.231Z,8.21
2023-01-15T20:23:40.120Z,8.17
2023-01-15T20:26:11.197Z,8.23
2023-01-15T20:28:40.766Z,8.39
2023-01-15T20:31:14.226Z,8.59
2023-01-15T20:33:43.054Z,8.01
2023-01-15T20:36:10.662Z,8.30
2023-01-15T20:38:38.100Z,7.33
2023-01-15T20:41:27.238Z,7.53
2023-01-15T20:44:08.772Z,7.90
2023-01-15T20:46:36.187Z,8.23
2023-01-15T20:49:22.618Z,8.29
2023-01-15T20:51:50.147Z,8.24
2023-01-15T20:54:17.574Z,8.23
2023-01-15T20:56:44.972Z,8.43
2023-01-15T20:59:12.486Z,8.29
2023-01-15T21:01:40.474Z,8.41
2023-01-15T21:04:10.550Z,7.79
2023-01-15T21:06:38.030Z,8.01
2023-01-15T21:09:06.023Z,8.22
2023-01-15T21:11:33.462Z,8.37
2023-01-15T21:14:00.867Z,8.19
2023-01-15T21:16:28.302Z,8.35
2023-01-15T21:18:56.308Z,8.31
2023-01-15T21:21:25.049Z,8.48
2023-01-15T21:23:52.443Z,8.26
2023-01-15T21:26:19.841Z,8.42
2023-01-15T21:28:47.290Z,8.04
2023-01-15T21:31:15.663Z,8.56
2023-01-15T21:33:43.215Z,8.60
2023-01-15T21:36:13.006Z,8.74
2023-01-15T21:38:42.502Z,8.30
2023-01-15T21:41:11.024Z,8.05
2023-01-15T21:44:10.990Z,8.25
2023-01-15T21:46:38.379Z,8.33
2023-01-15T21:49:06.014Z,8.37
2023-01-15T21:51:33.393Z,8.43
2023-01-15T21:54:02.126Z,8.80
2023-01-15T21:56:29.532Z,8.58
2023-01-15T21:58:57.057Z,8.84
2023-01-15T22:01:25.915Z,8.72
2023-01-15T22:03:53.462Z,11.24
2023-01-15T22:06:20.893Z,11.01
2023-01-15T22:08:48.309Z,12.97
2023-01-15T22:11:17.044Z,13.76
2023-01-15T22:13:44.514Z,14.48
2023-01-15T22:16:11.964Z,14.68
2023-01-15T22:18:40.907Z,14.70
2023-01-15T22:21:14.755Z,15.16
2023-01-15T22:23:42.793Z,13.97
2023-01-15T22:26:18.964Z,11.70
2023-01-15T22:28:46.557Z,10.37
2023-01-15T22:31:17.671Z,10.19
2023-01-15T22:33:45.182Z,9.50
2023-01-15T22:36:14.684Z,9.57
2023-01-15T22:38:42.535Z,8.88
2023-01-15T22:41:10.420Z,9.22
2023-01-15T22:43:38.225Z,8.79
2023-01-15T22:46:10.513Z,9.06
2023-01-15T22:48:38.065Z,8.92
2023-01-15T22:51:06.311Z,8.92
2023-01-15T22:53:33.832Z,8.57
2023-01-15T22:56:01.302Z,8.80
2023-01-15T22:58:28.708Z,8.24
2023-01-15T23:00:57.555Z,8.64
2023-01-15T23:03:25.019Z,8.52
2023-01-15T23:05:52.470Z,8.40
2023-01-15T23:08:19.913Z,8.29
2023-01-15T23:10:49.532Z,8.17
2023-01-15T23:13:16.938Z,8.18
2023-01-15T23:15:44.367Z,8.07
2023-01-15T23:18:13.131Z,8.14
2023-01-15T23:20:41.296Z,8.51
2023-01-15T23:23:08.775Z,8.10
2023-01-15T23:25:36.160Z,8.04
2023-01-15T23:28:03.669Z,8.11
2023-01-15T23:30:31.068Z,7.75
2023-01-15T23:32:58.494Z,6.95
2023-01-15T23:35:27.260Z,7.83
2023-01-15T23:37:54.687Z,7.84
2023-01-15T23:40:22.082Z,7.97
2023-01-15T23:43:09.511Z,7.81
2023-01-15T23:45:54.776Z,8.06
2023-01-15T23:48:22.255Z,7.11
2023-01-15T23:50:51.055Z,7.73
2023-01-15T23:53:18.486Z,7.91
2023-01-15T23:55:45.900Z,8.31
2023-01-15T23:58:13.294Z,8.17
